Airfield :
LOGIN :

Register | Disclaimer

   EN    FR    IT 

 










Legend :    VFR   Marginal VFR   IFR   Intensive IFR   Very Intensive IFR
Visi :
Ceiling :
>= 8 km
>= 3000ft
5 to 8 km
1000 to 3000 ft
1500m to 5 km
500 to 1000 ft
800 to 1500m
200 to 500 ft
< 800m
< 200 ft
Symbols :   Thunderstorms  Fog  Heavy snow  Heavy precipitations  Wind > 20 kt
SIGMETs :     Misc.  Thunderstorms  Icing  Turbulence  Mountain Waves  Volcanic Ashes






- Airport Elevation : 147 ft
- IATA code : DUS


EDDL - Düsseldorf Int.

CURRENT METAR :
  • 261720Z 03007KT 330V070 CAVOK 22/07 Q1033 NOSIG

EXPIRED METARs :
  • 261650Z 04007KT 360V080 CAVOK 22/07 Q1033 NOSIG
  • 261620Z 01007KT 350V090 CAVOK 22/07 Q1033 NOSIG
  • 261550Z 01005KT 330V060 CAVOK 23/07 Q1033 NOSIG
  • 261520Z 04008KT 010V070 CAVOK 22/07 Q1034 NOSIG
  • 261450Z 04007KT 360V080 CAVOK 23/08 Q1034 NOSIG

TAF TAF EDDL
Valid from the 26 at 18:00 until the 28 at 00:00 UTC


261700Z 2618/2724 03006KT CAVOK
BECMG 2618/2621 VRB02KT
BECMG 2709/2712 34007KT



MET'MAP, your aeronautical weather chart ! - Copyright ORBIFLY December 2007 - Disclaimer

ORBIFLY MET'MAP TEAM :

Programming & Development : Alexandra Zaïnal
Concept & original design : Baudouin d'Aumeries
Assistance for programming : Marc-Olivier Méhu
Technical & hardware support : Manuel Goepfert

Contact : metmap@orbifly.com




SOURCES & CREDITS :

   NOAA